createdAt,value
2019-03-10T00:02:31.086Z,14.87
2019-03-10T00:05:19.933Z,22.80
2019-03-10T00:08:08.852Z,21.53
2019-03-10T00:14:05.465Z,18.00
2019-03-10T00:16:54.277Z,22.17
2019-03-10T00:22:50.825Z,18.00
2019-03-10T00:25:39.619Z,17.90
2019-03-10T00:28:47.463Z,17.50
2019-03-10T00:31:36.251Z,16.30
2019-03-10T00:34:25.070Z,27.03
2019-03-10T00:37:06.969Z,16.37
2019-03-10T00:40:34.485Z,16.47
2019-03-10T00:44:02.837Z,25.43
2019-03-10T00:47:03.963Z,20.77
2019-03-10T00:50:13.713Z,17.03
2019-03-10T00:53:02.641Z,18.07
2019-03-10T00:55:51.617Z,21.17
2019-03-10T00:58:40.523Z,19.17
2019-03-10T01:01:29.337Z,25.10
2019-03-10T01:07:12.911Z,23.83
2019-03-10T01:10:01.806Z,23.90
2019-03-10T01:12:50.596Z,20.73
2019-03-10T01:15:39.980Z,19.07
2019-03-10T01:18:28.947Z,25.07
2019-03-10T01:21:38.673Z,35.40
2019-03-10T01:24:27.475Z,51.13
2019-03-10T01:27:16.293Z,29.00
2019-03-10T01:30:26.007Z,20.40
2019-03-10T01:33:35.735Z,38.37
2019-03-10T01:36:17.186Z,35.37
2019-03-10T01:42:05.430Z,25.40
2019-03-10T01:44:54.232Z,28.60
2019-03-10T01:47:43.046Z,32.33
2019-03-10T01:50:31.922Z,40.10
2019-03-10T01:53:25.570Z,39.43
2019-03-10T01:56:11.457Z,29.70
2019-03-10T01:59:00.306Z,26.87
2019-03-10T02:01:49.174Z,35.20
2019-03-10T02:04:37.959Z,29.97
2019-03-10T02:07:26.757Z,38.70
2019-03-10T02:10:15.576Z,30.17
2019-03-10T02:13:04.380Z,24.03
2019-03-10T02:15:53.197Z,27.43
2019-03-10T02:18:41.994Z,38.27
2019-03-10T02:21:30.816Z,31.07
2019-03-10T02:24:23.846Z,42.07
2019-03-10T02:27:10.157Z,31.80
2019-03-10T02:29:58.960Z,22.40
2019-03-10T02:32:47.782Z,37.47
2019-03-10T02:35:29.922Z,37.17
2019-03-10T02:38:18.713Z,27.77
2019-03-10T02:41:07.531Z,30.70
2019-03-10T02:43:56.329Z,32.00
2019-03-10T02:46:45.145Z,28.37
2019-03-10T02:49:33.948Z,28.37
2019-03-10T02:52:22.759Z,26.90
2019-03-10T02:55:11.578Z,30.10
2019-03-10T02:58:00.378Z,37.40
2019-03-10T03:00:49.200Z,19.60
2019-03-10T03:03:37.990Z,34.63
2019-03-10T03:06:26.809Z,34.83
2019-03-10T03:09:15.609Z,24.80
2019-03-10T03:12:04.434Z,27.20
2019-03-10T03:14:53.250Z,20.37
2019-03-10T03:17:42.041Z,25.83
2019-03-10T03:20:30.864Z,25.23
2019-03-10T03:23:19.657Z,38.90
2019-03-10T03:26:08.480Z,25.08
2019-03-10T03:28:57.276Z,33.37
2019-03-10T03:31:46.102Z,23.07
2019-03-10T03:34:34.897Z,30.00
2019-03-10T03:37:16.281Z,33.60
2019-03-10T03:40:25.994Z,30.20
2019-03-10T03:43:14.808Z,22.83
2019-03-10T03:46:03.613Z,25.25
2019-03-10T03:48:52.428Z,19.83
2019-03-10T03:54:48.977Z,27.30
2019-03-10T03:57:37.773Z,25.67
2019-03-10T04:00:26.590Z,24.82
2019-03-10T04:03:15.385Z,30.60
2019-03-10T04:06:04.209Z,21.70
2019-03-10T04:08:53.015Z,44.27
2019-03-10T04:11:41.823Z,26.97
2019-03-10T04:14:30.636Z,39.60
2019-03-10T04:17:19.443Z,23.50
2019-03-10T04:20:29.146Z,22.40
2019-03-10T04:23:17.962Z,22.93
2019-03-10T04:26:06.773Z,23.62
2019-03-10T04:28:55.576Z,24.17
2019-03-10T04:31:44.370Z,23.37
2019-03-10T04:34:33.229Z,45.47
2019-03-10T04:37:14.758Z,25.93
2019-03-10T04:43:18.550Z,33.40
2019-03-10T04:46:07.421Z,30.93
2019-03-10T04:48:56.239Z,24.17
2019-03-10T04:51:45.024Z,35.70
2019-03-10T04:54:52.941Z,35.13
2019-03-10T05:03:46.871Z,19.67
2019-03-10T05:06:35.691Z,22.40
2019-03-10T05:09:24.488Z,24.57
2019-03-10T05:12:13.302Z,23.77
2019-03-10T05:15:02.125Z,31.83
2019-03-10T05:17:50.953Z,36.80
2019-03-10T05:20:39.776Z,28.67
2019-03-10T05:23:47.997Z,38.80
2019-03-10T05:26:36.881Z,32.90
2019-03-10T05:29:25.701Z,32.90
2019-03-10T05:32:14.547Z,34.87
2019-03-10T05:38:22.630Z,26.73
2019-03-10T05:41:11.503Z,22.60
2019-03-10T05:44:00.318Z,22.27
2019-03-10T05:46:49.114Z,27.17
2019-03-10T05:49:37.944Z,22.67
2019-03-10T05:52:26.734Z,17.17
2019-03-10T05:55:15.576Z,27.40
2019-03-10T05:58:04.389Z,29.50
2019-03-10T06:00:53.166Z,17.53
2019-03-10T06:03:41.959Z,14.07
2019-03-10T06:06:31.125Z,19.63
2019-03-10T06:09:19.925Z,14.65
2019-03-10T06:12:08.731Z,18.23
2019-03-10T06:14:57.802Z,15.13
2019-03-10T06:17:46.625Z,19.57
2019-03-10T06:26:37.918Z,13.57
2019-03-10T06:29:26.742Z,16.50
2019-03-10T06:32:15.534Z,15.90
2019-03-10T06:38:12.369Z,15.87
2019-03-10T06:41:01.170Z,12.60
2019-03-10T06:43:49.984Z,11.37
2019-03-10T06:46:38.778Z,27.00
2019-03-10T06:49:27.594Z,18.20
2019-03-10T06:52:35.416Z,14.73
2019-03-10T06:55:24.236Z,19.60
2019-03-10T06:58:13.035Z,18.90
2019-03-10T07:01:01.850Z,19.87
2019-03-10T07:03:50.643Z,18.00
2019-03-10T07:06:39.471Z,14.13
2019-03-10T07:09:28.254Z,16.47
2019-03-10T07:15:30.259Z,19.30
2019-03-10T07:21:13.074Z,14.40
2019-03-10T07:24:01.890Z,11.43
2019-03-10T07:26:50.681Z,12.70
2019-03-10T07:29:58.519Z,14.07
2019-03-10T07:36:15.755Z,15.43
2019-03-10T07:39:01.910Z,19.37
2019-03-10T07:45:19.146Z,27.03
2019-03-10T07:48:26.971Z,22.80
2019-03-10T07:51:34.805Z,15.30
2019-03-10T07:54:23.374Z,17.40
2019-03-10T07:57:31.231Z,13.43
2019-03-10T08:00:39.062Z,12.60
2019-03-10T08:03:46.880Z,19.70
2019-03-10T08:06:54.730Z,19.17
2019-03-10T08:13:01.656Z,12.00
2019-03-10T08:16:09.496Z,18.80
2019-03-10T08:19:17.336Z,13.27
2019-03-10T08:25:34.625Z,21.93
2019-03-10T08:28:42.449Z,18.43
2019-03-10T08:31:50.295Z,19.37
2019-03-10T08:34:38.878Z,10.13
2019-03-10T08:37:46.695Z,13.50
2019-03-10T08:40:47.338Z,14.43
2019-03-10T08:43:55.159Z,13.30
2019-03-10T08:47:02.996Z,14.73
2019-03-10T08:50:10.823Z,17.10
2019-03-10T08:53:18.660Z,15.17
2019-03-10T08:56:26.490Z,14.50
2019-03-10T09:02:30.693Z,20.30
2019-03-10T09:05:19.247Z,11.90
2019-03-10T09:08:27.090Z,12.43
2019-03-10T09:11:34.908Z,12.17
2019-03-10T09:14:42.754Z,17.67
2019-03-10T09:20:59.983Z,14.50
2019-03-10T09:23:48.545Z,18.43
2019-03-10T09:26:56.387Z,13.13
2019-03-10T09:30:04.283Z,9.10
2019-03-10T09:33:12.122Z,17.80
2019-03-10T09:36:19.945Z,12.03
2019-03-10T09:42:21.956Z,5.80
2019-03-10T09:45:29.865Z,10.70
2019-03-10T09:48:37.702Z,9.90
2019-03-10T09:51:45.522Z,11.00
2019-03-10T09:54:53.382Z,18.97
2019-03-10T09:58:01.220Z,9.53
2019-03-10T10:04:04.816Z,12.27
2019-03-10T10:07:12.678Z,12.00
2019-03-10T10:13:19.867Z,12.13
2019-03-10T10:16:27.693Z,15.13
2019-03-10T10:22:31.077Z,11.53
2019-03-10T10:25:38.893Z,15.17
2019-03-10T10:28:46.730Z,16.83
2019-03-10T10:31:54.574Z,15.43
2019-03-10T10:35:02.425Z,15.78
2019-03-10T10:41:12.470Z,12.30
2019-03-10T10:44:20.306Z,8.00
2019-03-10T10:47:28.126Z,9.60
2019-03-10T10:50:35.970Z,11.10
2019-03-10T10:59:49.055Z,12.17
2019-03-10T11:05:51.959Z,9.97
2019-03-10T11:08:59.799Z,9.57
2019-03-10T11:12:07.619Z,10.50
2019-03-10T11:15:15.466Z,12.17
2019-03-10T11:18:23.297Z,12.57
2019-03-10T11:30:49.578Z,11.97
2019-03-10T11:33:57.394Z,13.43
2019-03-10T11:36:45.988Z,18.50
2019-03-10T11:39:29.595Z,9.27
2019-03-10T11:42:37.688Z,13.50
2019-03-10T11:45:45.561Z,16.42
2019-03-10T11:48:53.438Z,11.73
2019-03-10T11:52:01.338Z,13.67
2019-03-10T11:55:09.323Z,18.63
2019-03-10T11:58:17.221Z,15.97
2019-03-10T12:01:25.050Z,15.70
2019-03-10T12:04:32.892Z,14.80
2019-03-10T12:07:40.716Z,16.17
2019-03-10T12:10:29.528Z,7.60
2019-03-10T12:13:18.323Z,9.07
2019-03-10T12:16:07.141Z,11.23
2019-03-10T12:18:55.957Z,16.50
2019-03-10T12:21:44.827Z,14.77
2019-03-10T12:24:33.644Z,32.30
2019-03-10T12:27:22.437Z,8.50
2019-03-10T12:30:32.169Z,14.37
2019-03-10T12:33:21.022Z,11.17
2019-03-10T12:36:09.821Z,24.17
2019-03-10T12:38:49.560Z,10.00
2019-03-10T12:41:38.424Z,20.40
2019-03-10T12:44:27.549Z,31.00
2019-03-10T12:47:16.351Z,24.67
2019-03-10T12:50:24.547Z,15.37
2019-03-10T12:53:13.354Z,13.87
2019-03-10T12:56:02.173Z,18.27
2019-03-10T12:58:50.994Z,24.67
2019-03-10T13:01:39.795Z,19.57
2019-03-10T13:04:28.625Z,26.00
2019-03-10T13:07:17.422Z,11.93
2019-03-10T13:10:06.254Z,13.30
2019-03-10T13:12:55.043Z,13.37
2019-03-10T13:15:43.901Z,21.73
2019-03-10T13:18:32.729Z,13.70
2019-03-10T13:21:21.876Z,11.47
2019-03-10T13:24:10.724Z,14.67
2019-03-10T13:26:59.543Z,12.00
2019-03-10T13:29:48.353Z,16.97
2019-03-10T13:35:31.307Z,15.50
2019-03-10T13:38:20.105Z,14.80
2019-03-10T13:41:02.587Z,15.63
2019-03-10T13:43:51.525Z,19.43
2019-03-10T13:46:40.311Z,18.37
2019-03-10T13:49:48.218Z,16.70
2019-03-10T13:52:37.022Z,17.13
2019-03-10T13:55:25.852Z,18.90
2019-03-10T13:58:14.657Z,16.20
2019-03-10T14:04:00.217Z,15.63
2019-03-10T14:06:49.686Z,14.17
2019-03-10T14:09:38.536Z,12.83
2019-03-10T14:12:27.589Z,15.17
2019-03-10T14:21:25.891Z,15.17
2019-03-10T14:24:14.705Z,14.10
2019-03-10T14:27:03.501Z,16.30
2019-03-10T14:29:52.406Z,20.50
2019-03-10T14:32:41.196Z,30.50
2019-03-10T14:35:23.356Z,17.13
2019-03-10T14:41:20.100Z,23.40
2019-03-10T14:44:08.916Z,24.07
2019-03-10T14:46:57.709Z,16.50
2019-03-10T14:49:46.531Z,32.70
2019-03-10T14:52:35.611Z,19.30
2019-03-10T14:55:24.463Z,14.90
2019-03-10T14:58:13.273Z,12.00
2019-03-10T15:01:02.104Z,13.57
2019-03-10T15:03:50.880Z,11.77
2019-03-10T15:06:39.699Z,12.47
2019-03-10T15:09:28.491Z,19.97
2019-03-10T15:12:17.311Z,16.07
2019-03-10T15:15:27.022Z,25.20
2019-03-10T15:18:15.833Z,11.60
2019-03-10T15:21:23.727Z,15.73
2019-03-10T15:24:12.621Z,10.13
2019-03-10T15:27:01.415Z,13.67
2019-03-10T15:29:50.255Z,14.47
2019-03-10T15:32:39.066Z,15.37
2019-03-10T15:35:27.869Z,10.63
2019-03-10T15:38:09.407Z,7.73
2019-03-10T15:40:58.286Z,18.33
2019-03-10T15:43:47.111Z,14.23
2019-03-10T15:46:35.934Z,15.63
2019-03-10T15:49:24.733Z,27.83
2019-03-10T15:52:13.568Z,17.27
2019-03-10T15:55:02.367Z,17.00
2019-03-10T15:57:51.196Z,15.93
2019-03-10T16:00:40.062Z,11.80
2019-03-10T16:03:28.950Z,18.80
2019-03-10T16:06:17.761Z,11.80
2019-03-10T16:09:06.579Z,8.90
2019-03-10T16:11:55.379Z,12.70
2019-03-10T16:14:44.228Z,12.87
2019-03-10T16:17:33.045Z,11.43
2019-03-10T16:20:21.870Z,17.23
2019-03-10T16:23:10.699Z,19.20
2019-03-10T16:25:59.525Z,15.83
2019-03-10T16:28:48.342Z,22.80
2019-03-10T16:31:37.117Z,8.70
2019-03-10T16:34:18.456Z,24.07
2019-03-10T16:37:07.269Z,22.03
2019-03-10T16:39:56.064Z,14.10
2019-03-10T16:42:44.869Z,18.13
2019-03-10T16:45:33.796Z,18.53
2019-03-10T16:48:41.742Z,31.13
2019-03-10T16:54:38.299Z,13.70
2019-03-10T16:57:27.095Z,14.93
2019-03-10T17:03:30.802Z,21.43
2019-03-10T17:06:19.611Z,18.93
2019-03-10T17:09:27.736Z,19.63
2019-03-10T17:12:16.569Z,42.60
2019-03-10T17:15:26.300Z,12.13
2019-03-10T17:18:15.120Z,13.40
2019-03-10T17:21:03.944Z,11.97
2019-03-10T17:23:52.752Z,18.57
2019-03-10T17:26:41.549Z,17.27
2019-03-10T17:29:30.346Z,14.63
2019-03-10T17:32:19.176Z,16.80
2019-03-10T17:38:23.016Z,13.20
2019-03-10T17:41:11.823Z,10.90
2019-03-10T17:44:00.650Z,16.43
2019-03-10T17:46:49.463Z,15.97
2019-03-10T17:49:38.283Z,12.07
2019-03-10T17:52:27.093Z,12.87
2019-03-10T17:55:35.211Z,13.07
2019-03-10T17:58:24.030Z,17.80
2019-03-10T18:01:12.849Z,13.00
2019-03-10T18:04:01.631Z,7.80
2019-03-10T18:06:50.464Z,9.47
2019-03-10T18:09:39.261Z,12.98
2019-03-10T18:12:28.078Z,19.30
2019-03-10T18:18:32.078Z,21.90
2019-03-10T18:21:20.913Z,10.57
2019-03-10T18:24:02.912Z,17.13
2019-03-10T18:26:51.713Z,12.53
2019-03-10T18:29:40.531Z,10.53
2019-03-10T18:32:29.330Z,10.03
2019-03-10T18:35:18.148Z,8.87
2019-03-10T18:38:06.943Z,11.50
2019-03-10T18:40:55.822Z,14.90
2019-03-10T18:43:44.636Z,11.00
2019-03-10T18:46:33.457Z,11.68
2019-03-10T18:49:22.515Z,10.30
2019-03-10T18:52:11.342Z,11.73
2019-03-10T18:55:00.237Z,18.27
2019-03-10T18:57:51.034Z,18.63
2019-03-10T19:00:39.834Z,12.93
2019-03-10T19:03:29.063Z,12.60
2019-03-10T19:06:17.854Z,6.90
2019-03-10T19:15:36.700Z,15.83
2019-03-10T19:21:19.546Z,12.20
2019-03-10T19:24:01.164Z,11.87
2019-03-10T19:26:49.970Z,7.97
2019-03-10T19:29:38.783Z,7.63
2019-03-10T19:32:27.594Z,10.23
2019-03-10T19:35:35.501Z,7.92
2019-03-10T19:38:24.287Z,5.27
2019-03-10T19:41:13.099Z,5.97
2019-03-10T19:44:21.440Z,9.17
2019-03-10T19:47:11.609Z,9.27
2019-03-10T19:50:00.421Z,9.07
2019-03-10T19:52:49.220Z,8.50
2019-03-10T19:55:38.038Z,10.20
2019-03-10T19:58:26.844Z,9.47
2019-03-10T20:01:15.659Z,7.53
2019-03-10T20:04:04.811Z,7.27
2019-03-10T20:06:53.625Z,10.60
2019-03-10T20:09:42.425Z,15.23
2019-03-10T20:12:31.232Z,7.47
2019-03-10T20:15:40.934Z,12.60
2019-03-10T20:18:29.760Z,8.10
2019-03-10T20:21:18.545Z,10.23
2019-03-10T20:23:59.835Z,9.17
2019-03-10T20:26:48.630Z,10.43
2019-03-10T20:29:37.454Z,10.23
2019-03-10T20:32:26.253Z,7.57
2019-03-10T20:35:15.128Z,8.80
2019-03-10T20:38:03.952Z,6.73
2019-03-10T20:40:52.769Z,7.03
2019-03-10T20:43:41.564Z,10.73
2019-03-10T20:46:30.422Z,17.03
2019-03-10T20:49:19.317Z,13.40
2019-03-10T20:52:08.111Z,9.10
2019-03-10T20:54:56.930Z,12.97
2019-03-10T20:57:45.734Z,7.90
2019-03-10T21:00:34.537Z,8.50
2019-03-10T21:03:23.334Z,19.00
2019-03-10T21:06:12.152Z,11.15
2019-03-10T21:09:00.947Z,10.60
2019-03-10T21:11:49.758Z,6.90
2019-03-10T21:14:57.603Z,11.90
2019-03-10T21:17:46.529Z,10.70
2019-03-10T21:20:35.351Z,12.03
2019-03-10T21:23:17.389Z,12.40
2019-03-10T21:26:06.203Z,9.25
2019-03-10T21:28:55.006Z,11.77
2019-03-10T21:31:43.827Z,7.27
2019-03-10T21:34:32.624Z,24.83
2019-03-10T21:37:21.445Z,11.23
2019-03-10T21:40:31.203Z,8.33
2019-03-10T21:43:20.074Z,8.53
2019-03-10T21:46:08.866Z,11.97
2019-03-10T21:51:52.276Z,10.57
2019-03-10T21:54:41.133Z,15.13
2019-03-10T21:57:29.906Z,12.37
2019-03-10T22:03:34.620Z,10.90
2019-03-10T22:06:23.420Z,11.18
2019-03-10T22:09:12.233Z,8.63
2019-03-10T22:12:01.020Z,8.07
2019-03-10T22:15:08.861Z,13.97
2019-03-10T22:17:50.506Z,8.20
2019-03-10T22:20:39.304Z,10.47
2019-03-10T22:23:28.115Z,6.80
2019-03-10T22:26:16.906Z,7.67
2019-03-10T22:29:05.730Z,10.10
2019-03-10T22:31:54.529Z,7.17
2019-03-10T22:34:43.354Z,6.90
2019-03-10T22:37:32.144Z,13.30
2019-03-10T22:40:20.961Z,5.30
2019-03-10T22:43:09.752Z,8.60
2019-03-10T22:45:58.577Z,11.87
2019-03-10T22:48:47.395Z,7.60
2019-03-10T22:51:36.198Z,11.70
2019-03-10T22:54:25.342Z,17.63
2019-03-10T22:57:14.204Z,11.83
2019-03-10T23:03:18.348Z,5.70
2019-03-10T23:06:07.132Z,6.93
2019-03-10T23:08:55.937Z,9.73
2019-03-10T23:11:44.743Z,17.40
2019-03-10T23:14:33.568Z,27.43
2019-03-10T23:17:22.360Z,7.17
2019-03-10T23:20:30.506Z,14.20
2019-03-10T23:26:06.493Z,8.07
2019-03-10T23:28:55.541Z,19.07
2019-03-10T23:32:03.389Z,10.63
2019-03-10T23:34:52.179Z,5.10
2019-03-10T23:37:41.015Z,8.03
2019-03-10T23:40:29.813Z,8.90
2019-03-10T23:43:18.609Z,8.20
2019-03-10T23:46:07.432Z,10.40
2019-03-10T23:48:56.231Z,9.37
2019-03-10T23:51:45.026Z,8.33
2019-03-10T23:54:33.825Z,33.50
2019-03-10T23:57:22.632Z,15.00
